Time;durP1;ratioP1;P1;durP2;ratioP2;P2;SDS_P1;SDS_P2;PMS_P1;PMS_P2;Temp;Humidity;BMP_temperature;BMP_pressure;BME280_temperature;BME280_humidity;BME280_pressure;Samples;Min_cycle;Max_cycle;Signal;HPM_P1;HPM_P2
2022/12/23 00:01:00;;;;;;;74.72;43.28;;;;;;;;;;5053464;28;20029;-81
2022/12/23 00:03:26;;;;;;;71.35;39.80;;;;;;;;;;5053350;28;20476;-82
2022/12/23 00:05:52;;;;;;;72.50;42.53;;;;;;;;;;5051868;28;20068;-82
2022/12/23 00:08:19;;;;;;;64.70;38.80;;;;;;;;;;5051969;28;20025;-80
2022/12/23 00:10:45;;;;;;;69.88;42.28;;;;;;;;;;5053116;28;20017;-81
2022/12/23 00:16:03;;;;;;;70.93;41.03;;;;;;;;;;5053084;28;20044;-81
2022/12/23 00:18:29;;;;;;;75.13;42.97;;;;;;;;;;5051750;28;20032;-80
2022/12/23 00:21:02;;;;;;;73.78;40.72;;;;;;;;;;5053159;28;20456;-81
2022/12/23 00:23:32;;;;;;;76.22;42.35;;;;;;;;;;5052954;28;20079;-80
2022/12/23 00:25:58;;;;;;;74.40;42.80;;;;;;;;;;5052995;28;20036;-84
2022/12/23 00:28:25;;;;;;;77.72;41.42;;;;;;;;;;5052964;28;20380;-83
2022/12/23 00:30:58;;;;;;;82.15;48.63;;;;;;;;;;5053016;28;20171;-81
2022/12/23 00:33:25;;;;;;;90.43;51.55;;;;;;;;;;5052694;28;20495;-81
2022/12/23 00:35:52;;;;;;;97.70;57.95;;;;;;;;;;5052717;28;20086;-80
2022/12/23 00:44:04;;;;;;;76.47;43.75;;;;;;;;;;5046531;28;20503;-81
2022/12/23 00:46:31;;;;;;;70.53;41.75;;;;;;;;;;5052867;28;20115;-81
2022/12/23 00:51:46;;;;;;;81.53;47.90;;;;;;;;;;5042008;28;20029;-80
2022/12/23 00:54:12;;;;;;;68.82;41.90;;;;;;;;;;5052439;28;20021;-81
2022/12/23 00:56:38;;;;;;;68.85;39.85;;;;;;;;;;5052405;28;20021;-80
2022/12/23 00:59:05;;;;;;;67.68;39.55;;;;;;;;;;5052505;28;20484;-82
2022/12/23 01:07:02;;;;;;;63.90;37.50;;;;;;;;;;5052671;28;20052;-80
2022/12/23 01:09:28;;;;;;;67.43;38.60;;;;;;;;;;5052580;28;20040;-81
2022/12/23 01:11:54;;;;;;;63.63;38.33;;;;;;;;;;5052360;28;20029;-81
2022/12/23 01:14:21;;;;;;;71.53;39.22;;;;;;;;;;5052455;28;20090;-81
2022/12/23 01:16:47;;;;;;;75.18;43.08;;;;;;;;;;5052315;28;20384;-82
2022/12/23 01:19:13;;;;;;;72.35;42.25;;;;;;;;;;5052103;28;20440;-80
2022/12/23 01:21:39;;;;;;;87.32;44.38;;;;;;;;;;5051138;28;20468;-81
2022/12/23 01:24:05;;;;;;;80.32;45.70;;;;;;;;;;5052310;28;20057;-81
2022/12/23 01:26:31;;;;;;;85.30;47.05;;;;;;;;;;5052453;28;20060;-79
2022/12/23 01:28:57;;;;;;;76.35;44.10;;;;;;;;;;5052233;28;20028;-81
2022/12/23 01:31:24;;;;;;;82.80;47.78;;;;;;;;;;5051911;28;20091;-80
2022/12/23 01:33:50;;;;;;;82.63;45.92;;;;;;;;;;5050956;28;20075;-81
2022/12/23 01:36:17;;;;;;;79.13;44.03;;;;;;;;;;5051896;28;20040;-81
2022/12/23 01:38:43;;;;;;;82.75;44.63;;;;;;;;;;5052157;28;20141;-80
2022/12/23 01:42:42;;;;;;;89.90;49.47;;;;;;;;;;5051936;28;20017;-81
2022/12/23 01:44:00;;;;;;;86.97;47.67;;;;;;;;;;5051849;28;20021;-80
2022/12/23 01:46:26;;;;;;;82.32;48.10;;;;;;;;;;5052073;28;20070;-80
2022/12/23 01:48:52;;;;;;;83.45;47.92;;;;;;;;;;5067024;28;20059;-79
2022/12/23 01:51:20;;;;;;;86.07;46.42;;;;;;;;;;5075859;28;20031;-79
2022/12/23 01:53:48;;;;;;;79.63;46.33;;;;;;;;;;5057834;28;20475;-80
2022/12/23 01:56:17;;;;;;;83.75;46.88;;;;;;;;;;5057751;28;20029;-81
2022/12/23 01:58:51;;;;;;;85.00;50.25;;;;;;;;;;5057790;28;20023;-81
2022/12/23 02:04:05;;;;;;;76.57;43.45;;;;;;;;;;5075699;28;19919;-79
2022/12/23 02:09:27;;;;;;;73.93;42.13;;;;;;;;;;5075727;28;20227;-79
2022/12/23 02:12:08;;;;;;;69.32;40.53;;;;;;;;;;5075485;28;20028;-79
2022/12/23 02:17:40;;;;;;;73.43;40.95;;;;;;;;;;5075222;28;20031;-79
2022/12/23 02:20:06;;;;;;;71.90;42.13;;;;;;;;;;5075442;28;20468;-81
2022/12/23 02:22:51;;;;;;;72.18;40.53;;;;;;;;;;5057287;28;20544;-81
2022/12/23 02:25:20;;;;;;;70.60;39.22;;;;;;;;;;5075141;28;20032;-80
2022/12/23 02:28:04;;;;;;;68.43;40.30;;;;;;;;;;5075271;28;20020;-79
2022/12/23 02:30:49;;;;;;;71.05;40.53;;;;;;;;;;5075263;28;20025;-81
2022/12/23 02:33:15;;;;;;;68.22;39.33;;;;;;;;;;5075104;28;20025;-80
2022/12/23 02:35:59;;;;;;;74.30;43.15;;;;;;;;;;5074889;28;20052;-81
2022/12/23 02:38:28;;;;;;;77.20;43.25;;;;;;;;;;5074940;28;20361;-81
2022/12/23 02:41:12;;;;;;;78.32;44.75;;;;;;;;;;5075214;28;20078;-80
2022/12/23 02:43:47;;;;;;;80.15;45.85;;;;;;;;;;5057214;28;20028;-80
2022/12/23 02:46:22;;;;;;;71.85;42.85;;;;;;;;;;5074913;28;20020;-80
2022/12/23 02:49:07;;;;;;;72.13;41.30;;;;;;;;;;5056989;28;20098;-80
2022/12/23 02:51:33;;;;;;;;;;;;;;;;;;5057431;28;20024;-81
2022/12/23 02:54:02;;;;;;;78.72;41.35;;;;;;;;;;5057151;28;20267;-81
2022/12/23 02:56:30;;;;;;;78.07;42.97;;;;;;;;;;5074613;28;20111;-82
2022/12/23 02:59:09;;;;;;;74.38;40.78;;;;;;;;;;5074520;28;20025;-79
2022/12/23 03:01:35;;;;;;;76.35;40.83;;;;;;;;;;5073986;28;20047;-80
2022/12/23 03:04:01;;;;;;;75.50;42.60;;;;;;;;;;5056696;28;20060;-80
2022/12/23 03:06:39;;;;;;;70.10;41.88;;;;;;;;;;5056526;28;20028;-82
2022/12/23 03:09:05;;;;;;;78.68;45.25;;;;;;;;;;5056554;28;20055;-79
2022/12/23 03:11:50;;;;;;;82.53;46.75;;;;;;;;;;5074265;28;20025;-79
2022/12/23 03:14:16;;;;;;;86.18;47.70;;;;;;;;;;5074163;28;20036;-81
2022/12/23 03:17:00;;;;;;;76.20;44.25;;;;;;;;;;5074361;28;20841;-79
2022/12/23 03:19:31;;;;;;;82.03;46.28;;;;;;;;;;5074353;28;20028;-81
2022/12/23 03:22:16;;;;;;;89.78;50.38;;;;;;;;;;5074008;28;20017;-81
2022/12/23 03:24:44;;;;;;;109.97;60.45;;;;;;;;;;5073929;28;20024;-81
2022/12/23 03:27:15;;;;;;;92.95;52.13;;;;;;;;;;5074227;28;20024;-79
2022/12/23 03:29:45;;;;;;;83.75;47.35;;;;;;;;;;5073959;28;20016;-81
2022/12/23 03:32:12;;;;;;;77.88;44.72;;;;;;;;;;5074029;28;20036;-79
2022/12/23 03:34:40;;;;;;;73.80;44.97;;;;;;;;;;5073780;28;20059;-80
2022/12/23 03:37:08;;;;;;;79.85;43.40;;;;;;;;;;5073956;28;20025;-78
2022/12/23 03:39:38;;;;;;;75.93;44.20;;;;;;;;;;5073776;28;20150;-81
2022/12/23 03:42:07;;;;;;;79.40;44.42;;;;;;;;;;5055964;28;20395;-79
2022/12/23 03:44:38;;;;;;;70.18;41.90;;;;;;;;;;5055585;28;20048;-79
2022/12/23 03:47:09;;;;;;;78.47;43.85;;;;;;;;;;5073291;28;20024;-79
2022/12/23 03:49:37;;;;;;;70.47;40.72;;;;;;;;;;5073535;28;20017;-81
2022/12/23 03:52:11;;;;;;;90.15;50.80;;;;;;;;;;5055745;28;20020;-82
2022/12/23 03:54:40;;;;;;;92.53;52.05;;;;;;;;;;5073483;28;20036;-82
2022/12/23 03:57:07;;;;;;;111.63;58.25;;;;;;;;;;5055607;28;20437;-81
2022/12/23 03:59:35;;;;;;;98.90;54.10;;;;;;;;;;5055372;28;20475;-81
2022/12/23 04:02:07;;;;;;;99.35;55.33;;;;;;;;;;5073521;28;20025;-79
2022/12/23 04:04:57;;;;;;;100.63;53.47;;;;;;;;;;5073376;28;20036;-82
2022/12/23 04:07:43;;;;;;;106.20;57.42;;;;;;;;;;5060825;28;20083;-79
2022/12/23 04:10:10;;;;;;;108.80;57.47;;;;;;;;;;5056816;28;20472;-81
2022/12/23 04:12:36;;;;;;;107.63;57.92;;;;;;;;;;5072518;28;20035;-79
2022/12/23 04:15:02;;;;;;;100.57;54.05;;;;;;;;;;5073509;28;20041;-82
2022/12/23 04:17:28;;;;;;;83.53;46.42;;;;;;;;;;5073279;28;20375;-82
2022/12/23 04:19:55;;;;;;;80.30;44.25;;;;;;;;;;5073111;28;20044;-81
2022/12/23 04:22:21;;;;;;;92.30;51.20;;;;;;;;;;5073961;28;20027;-79
2022/12/23 04:24:47;;;;;;;96.70;50.88;;;;;;;;;;5054849;28;20418;-79
2022/12/23 04:27:14;;;;;;;94.10;52.53;;;;;;;;;;5072951;28;20028;-79
2022/12/23 04:29:40;;;;;;;89.85;51.90;;;;;;;;;;5072865;28;20170;-78
2022/12/23 04:32:07;;;;;;;84.55;50.50;;;;;;;;;;5072755;28;20029;-80
2022/12/23 04:34:33;;;;;;;89.57;50.75;;;;;;;;;;5072835;28;20077;-79
2022/12/23 04:36:59;;;;;;;88.97;48.70;;;;;;;;;;5072358;28;20025;-81
2022/12/23 04:39:25;;;;;;;84.18;46.53;;;;;;;;;;5072794;28;20078;-81
2022/12/23 04:41:51;;;;;;;132.07;63.08;;;;;;;;;;5072297;28;20021;-80
2022/12/23 04:44:17;;;;;;;81.38;42.20;;;;;;;;;;5072857;28;20104;-82
2022/12/23 04:46:43;;;;;;;100.20;55.60;;;;;;;;;;5072306;28;20035;-79
2022/12/23 04:49:09;;;;;;;86.68;50.78;;;;;;;;;;5072498;28;20119;-79
2022/12/23 04:51:35;;;;;;;84.65;50.00;;;;;;;;;;5072720;28;20102;-79
2022/12/23 04:54:02;;;;;;;89.28;50.55;;;;;;;;;;5072543;28;20021;-79
2022/12/23 04:56:28;;;;;;;86.03;48.90;;;;;;;;;;5053436;28;20044;-80
2022/12/23 04:58:54;;;;;;;90.13;52.28;;;;;;;;;;5072421;28;20029;-80
2022/12/23 05:01:20;;;;;;;83.28;48.95;;;;;;;;;;5072583;28;20021;-80
2022/12/23 05:03:46;;;;;;;96.82;55.25;;;;;;;;;;5072325;28;20025;-81
2022/12/23 05:06:14;;;;;;;93.82;51.80;;;;;;;;;;5072331;28;20066;-80
2022/12/23 05:08:40;;;;;;;100.30;54.88;;;;;;;;;;5071150;28;20060;-80
2022/12/23 05:11:06;;;;;;;90.82;52.50;;;;;;;;;;5068283;28;20016;-80
2022/12/23 05:13:32;;;;;;;86.70;50.38;;;;;;;;;;5070464;28;20071;-80
2022/12/23 05:15:58;;;;;;;91.72;53.17;;;;;;;;;;5072360;28;20103;-79
2022/12/23 05:18:24;;;;;;;87.30;51.83;;;;;;;;;;5083429;28;20433;-80
2022/12/23 05:20:50;;;;;;;92.13;52.58;;;;;;;;;;5054395;28;20021;-78
2022/12/23 05:23:17;;;;;;;98.35;55.78;;;;;;;;;;5072873;28;20108;-81
2022/12/23 05:25:43;;;;;;;99.63;56.88;;;;;;;;;;5076351;28;20024;-79
2022/12/23 05:28:09;;;;;;;103.22;58.10;;;;;;;;;;5076262;28;20020;-78
2022/12/23 05:30:35;;;;;;;97.63;54.20;;;;;;;;;;5076051;28;20021;-78
2022/12/23 05:33:01;;;;;;;97.55;52.22;;;;;;;;;;5076367;28;20078;-81
2022/12/23 05:35:27;;;;;;;109.25;60.33;;;;;;;;;;5076235;28;20039;-80
2022/12/23 05:37:53;;;;;;;100.82;60.78;;;;;;;;;;5058357;28;20020;-81
2022/12/23 05:40:19;;;;;;;99.38;59.72;;;;;;;;;;5076043;28;20024;-79
2022/12/23 05:42:45;;;;;;;95.10;54.50;;;;;;;;;;5076238;28;20031;-79
2022/12/23 05:45:11;;;;;;;102.00;55.92;;;;;;;;;;5076045;28;20025;-82
2022/12/23 05:47:37;;;;;;;96.80;56.85;;;;;;;;;;5075674;28;20045;-80
2022/12/23 05:50:04;;;;;;;92.57;53.47;;;;;;;;;;5077047;28;20028;-81
2022/12/23 05:52:30;;;;;;;92.32;55.67;;;;;;;;;;5076004;28;20020;-81
2022/12/23 05:54:57;;;;;;;109.45;64.43;;;;;;;;;;5075764;28;20115;-82
2022/12/23 05:57:23;;;;;;;106.13;63.10;;;;;;;;;;5078989;28;20471;-81
2022/12/23 05:59:49;;;;;;;117.88;68.25;;;;;;;;;;5084003;28;20032;-83
2022/12/23 06:02:17;;;;;;;114.72;66.63;;;;;;;;;;5083131;28;20072;-83
2022/12/23 06:04:43;;;;;;;108.75;63.33;;;;;;;;;;5057905;28;20501;-82
2022/12/23 06:07:09;;;;;;;109.13;64.32;;;;;;;;;;5075586;28;20074;-79
2022/12/23 06:09:35;;;;;;;104.65;62.42;;;;;;;;;;5075471;28;20418;-81
2022/12/23 06:12:01;;;;;;;99.03;59.22;;;;;;;;;;5057526;28;20032;-81
2022/12/23 06:14:27;;;;;;;87.65;50.97;;;;;;;;;;5075201;28;20034;-83
2022/12/23 06:16:53;;;;;;;85.18;47.58;;;;;;;;;;5081392;28;20028;-82
2022/12/23 06:19:19;;;;;;;88.93;52.03;;;;;;;;;;5091782;28;20156;-83
2022/12/23 06:21:45;;;;;;;87.05;51.05;;;;;;;;;;5095103;28;20090;-83
2022/12/23 06:24:12;;;;;;;83.38;46.90;;;;;;;;;;5088552;28;20025;-83
2022/12/23 06:26:38;;;;;;;78.97;42.85;;;;;;;;;;5073717;28;20047;-82
2022/12/23 06:29:04;;;;;;;78.90;44.90;;;;;;;;;;5072190;28;20028;-80
2022/12/23 06:31:30;;;;;;;81.68;39.35;;;;;;;;;;5066563;28;20120;-82
2022/12/23 06:33:56;;;;;;;124.32;46.35;;;;;;;;;;5070309;28;20475;-82
2022/12/23 06:36:22;;;;;;;102.63;59.28;;;;;;;;;;5063611;28;20107;-81
2022/12/23 06:38:48;;;;;;;120.95;75.32;;;;;;;;;;5076746;28;20449;-81
2022/12/23 06:41:14;;;;;;;167.35;100.93;;;;;;;;;;5067545;28;20032;-83
2022/12/23 06:43:40;;;;;;;138.52;79.53;;;;;;;;;;5052727;28;20115;-82
2022/12/23 06:46:06;;;;;;;155.50;93.43;;;;;;;;;;5073554;28;20479;-83
2022/12/23 06:48:32;;;;;;;121.45;71.70;;;;;;;;;;5078566;28;20792;-79
2022/12/23 06:50:58;;;;;;;109.88;66.88;;;;;;;;;;5080936;28;20020;-80
2022/12/23 06:53:24;;;;;;;138.65;86.18;;;;;;;;;;5082606;28;20063;-80
2022/12/23 06:55:58;;;;;;;128.63;78.35;;;;;;;;;;5074226;28;20033;-84
2022/12/23 06:58:25;;;;;;;131.60;82.28;;;;;;;;;;5038775;28;20058;-79
2022/12/23 07:00:52;;;;;;;129.48;78.72;;;;;;;;;;5056403;28;20060;-80
2022/12/23 07:03:18;;;;;;;160.90;98.22;;;;;;;;;;5056503;28;20024;-80
2022/12/23 07:05:48;;;;;;;164.80;102.63;;;;;;;;;;5073481;28;20048;-80
2022/12/23 07:08:14;;;;;;;162.32;102.65;;;;;;;;;;5073958;28;20025;-78
2022/12/23 07:10:40;;;;;;;187.75;113.90;;;;;;;;;;5067760;28;20054;-81
2022/12/23 07:13:07;;;;;;;166.55;102.47;;;;;;;;;;5073667;28;20564;-83
2022/12/23 07:15:33;;;;;;;168.90;102.40;;;;;;;;;;5072247;28;20052;-82
2022/12/23 07:17:59;;;;;;;174.13;108.38;;;;;;;;;;5075205;28;20118;-80
2022/12/23 07:20:25;;;;;;;161.88;95.88;;;;;;;;;;5074230;28;20028;-80
2022/12/23 07:22:53;;;;;;;164.27;97.90;;;;;;;;;;5064302;28;20032;-86
2022/12/23 07:25:20;;;;;;;178.02;100.13;;;;;;;;;;5068896;28;20082;-80
2022/12/23 07:27:46;;;;;;;158.55;94.72;;;;;;;;;;5069947;28;20549;-84
2022/12/23 07:30:12;;;;;;;158.23;96.47;;;;;;;;;;5071273;28;20483;-81
2022/12/23 07:32:39;;;;;;;186.63;110.50;;;;;;;;;;5055373;28;20031;-79
2022/12/23 07:35:05;;;;;;;209.13;99.65;;;;;;;;;;5054623;28;20071;-81
2022/12/23 07:37:31;;;;;;;165.10;81.30;;;;;;;;;;5052645;28;20483;-81
2022/12/23 07:39:57;;;;;;;136.43;82.68;;;;;;;;;;5072670;28;20032;-79
2022/12/23 07:42:23;;;;;;;135.93;76.90;;;;;;;;;;5054677;28;20387;-81
2022/12/23 07:44:49;;;;;;;149.82;84.60;;;;;;;;;;5065118;28;20031;-82
2022/12/23 07:47:16;;;;;;;153.57;84.45;;;;;;;;;;5066837;28;20497;-80
2022/12/23 07:49:42;;;;;;;124.70;70.43;;;;;;;;;;5079891;28;20043;-84
2022/12/23 07:52:08;;;;;;;113.13;62.53;;;;;;;;;;5073240;28;20108;-82
2022/12/23 07:54:34;;;;;;;111.70;58.63;;;;;;;;;;5074581;28;20510;-82
2022/12/23 07:57:00;;;;;;;102.22;57.83;;;;;;;;;;5071563;28;20059;-79
2022/12/23 07:59:26;;;;;;;102.80;60.42;;;;;;;;;;5053613;28;20017;-82
2022/12/23 08:01:55;;;;;;;100.65;58.17;;;;;;;;;;5061376;28;20021;-82
2022/12/23 08:04:21;;;;;;;96.43;54.08;;;;;;;;;;5053981;28;20025;-80
2022/12/23 08:06:47;;;;;;;88.53;50.35;;;;;;;;;;5063651;28;20140;-79
2022/12/23 08:09:14;;;;;;;98.60;52.47;;;;;;;;;;5049067;28;20039;-78
2022/12/23 08:11:40;;;;;;;81.90;47.95;;;;;;;;;;5072192;28;20059;-80
2022/12/23 08:14:06;;;;;;;75.03;46.30;;;;;;;;;;5072506;28;20068;-79
2022/12/23 08:16:32;;;;;;;74.00;46.17;;;;;;;;;;5072588;28;20098;-79
2022/12/23 08:19:07;;;;;;;100.70;56.40;;;;;;;;;;5070007;28;20500;-83
2022/12/23 08:21:33;;;;;;;117.00;69.70;;;;;;;;;;5054315;28;20051;-78
2022/12/23 08:23:59;;;;;;;80.63;49.55;;;;;;;;;;5066265;28;20033;-81
2022/12/23 08:26:25;;;;;;;111.47;54.28;;;;;;;;;;5053911;28;20039;-82
2022/12/23 08:28:54;;;;;;;87.25;48.28;;;;;;;;;;5072015;28;20174;-81
2022/12/23 08:31:27;;;;;;;76.55;48.45;;;;;;;;;;5072650;28;20477;-79
2022/12/23 08:33:55;;;;;;;76.72;45.42;;;;;;;;;;5067201;28;20161;-84
2022/12/23 08:36:22;;;;;;;76.43;48.53;;;;;;;;;;5052090;28;20044;-79
2022/12/23 08:38:49;;;;;;;93.47;53.67;;;;;;;;;;5054105;28;20036;-82
2022/12/23 08:41:16;;;;;;;85.18;50.15;;;;;;;;;;5072583;28;20368;-81
2022/12/23 08:43:43;;;;;;;84.78;48.83;;;;;;;;;;5070383;28;20499;-83
2022/12/23 08:46:10;;;;;;;85.82;50.42;;;;;;;;;;5073408;28;20032;-81
2022/12/23 08:48:36;;;;;;;86.40;50.47;;;;;;;;;;5072356;28;20448;-80
2022/12/23 08:51:04;;;;;;;90.18;51.13;;;;;;;;;;5051845;28;20783;-85
2022/12/23 08:53:30;;;;;;;93.47;47.78;;;;;;;;;;5049697;28;20434;-78
2022/12/23 08:56:01;;;;;;;115.43;54.55;;;;;;;;;;5061210;28;20037;-78
2022/12/23 08:58:27;;;;;;;126.22;61.92;;;;;;;;;;5051172;28;20075;-78
2022/12/23 09:00:53;;;;;;;125.80;63.67;;;;;;;;;;5069734;28;20082;-81
2022/12/23 09:03:20;;;;;;;153.43;74.05;;;;;;;;;;5052826;28;20487;-80
2022/12/23 09:05:46;;;;;;;176.00;77.20;;;;;;;;;;5051314;28;20077;-81
2022/12/23 09:08:12;;;;;;;168.73;71.63;;;;;;;;;;5069213;28;20021;-80
2022/12/23 09:10:57;;;;;;;158.25;66.97;;;;;;;;;;5066964;28;20055;-81
2022/12/23 09:13:23;;;;;;;;;;;;;;;;;;5051282;28;20052;-81
2022/12/23 09:15:49;;;;;;;196.90;80.32;;;;;;;;;;5071563;28;19954;-80
2022/12/23 09:18:15;;;;;;;216.40;87.15;;;;;;;;;;5070868;28;20033;-81
2022/12/23 09:20:41;;;;;;;220.93;82.57;;;;;;;;;;5071273;28;20060;-80
2022/12/23 09:23:07;;;;;;;231.20;83.90;;;;;;;;;;5053226;28;20441;-81
2022/12/23 09:25:35;;;;;;;286.92;102.68;;;;;;;;;;5071935;28;20056;-79
2022/12/23 09:28:01;;;;;;;193.40;81.32;;;;;;;;;;5070271;28;20055;-80
2022/12/23 09:30:27;;;;;;;240.68;101.80;;;;;;;;;;5066164;28;20533;-83
2022/12/23 09:32:56;;;;;;;109.05;58.70;;;;;;;;;;5048768;28;20025;-85
2022/12/23 09:35:24;;;;;;;163.95;72.25;;;;;;;;;;5065309;28;20036;-84
2022/12/23 09:37:50;;;;;;;124.30;65.68;;;;;;;;;;5068713;28;20047;-79
2022/12/23 09:40:24;;;;;;;103.13;57.05;;;;;;;;;;5066579;28;20035;-78
2022/12/23 09:43:10;;;;;;;484.65;167.13;;;;;;;;;;5059133;28;20069;-86
2022/12/23 09:45:56;;;;;;;374.45;153.15;;;;;;;;;;5053038;28;20040;-80
2022/12/23 09:48:23;;;;;;;;;;;;;;;;;;5070246;28;20045;-83
2022/12/23 09:50:50;;;;;;;270.08;133.90;;;;;;;;;;5078203;28;19953;-85
2022/12/23 09:53:21;;;;;;;136.93;80.35;;;;;;;;;;5074489;28;20107;-84
2022/12/23 09:55:56;;;;;;;93.45;59.55;;;;;;;;;;5065233;28;20059;-83
2022/12/23 09:58:25;;;;;;;113.15;68.18;;;;;;;;;;5074745;28;20154;-82
2022/12/23 10:00:59;;;;;;;113.53;67.07;;;;;;;;;;5071770;28;20028;-81
2022/12/23 10:03:32;;;;;;;143.57;85.53;;;;;;;;;;5068505;28;20071;-80
2022/12/23 10:06:12;;;;;;;96.03;59.78;;;;;;;;;;5065694;28;20496;-82
2022/12/23 10:08:41;;;;;;;104.10;65.68;;;;;;;;;;5063032;28;20028;-83
2022/12/23 10:11:13;;;;;;;92.47;55.80;;;;;;;;;;5068609;28;20024;-86
2022/12/23 10:13:41;;;;;;;95.07;60.25;;;;;;;;;;5057270;28;20482;-83
2022/12/23 10:16:11;;;;;;;97.85;57.42;;;;;;;;;;5077408;28;20506;-82
2022/12/23 10:18:37;;;;;;;101.00;58.67;;;;;;;;;;5054574;28;20033;-79
2022/12/23 10:21:05;;;;;;;87.65;50.10;;;;;;;;;;5070471;28;20025;-83
2022/12/23 10:23:37;;;;;;;80.80;49.42;;;;;;;;;;5066579;28;20484;-82
2022/12/23 10:26:07;;;;;;;86.78;51.17;;;;;;;;;;5052399;28;20514;-81
2022/12/23 10:28:33;;;;;;;105.07;58.88;;;;;;;;;;5058776;28;20037;-83
2022/12/23 10:31:03;;;;;;;80.82;51.47;;;;;;;;;;5067013;28;20025;-82
2022/12/23 10:33:37;;;;;;;83.35;49.90;;;;;;;;;;5074355;28;20472;-79
2022/12/23 10:36:03;;;;;;;87.78;52.03;;;;;;;;;;5054517;28;20119;-80
2022/12/23 10:38:48;;;;;;;89.07;53.85;;;;;;;;;;5074979;28;20013;-83
2022/12/23 10:41:14;;;;;;;;;;;;;;;;;;5072967;28;20025;-81
2022/12/23 10:44:06;;;;;;;87.88;52.22;;;;;;;;;;5067631;28;19931;-83
2022/12/23 10:46:53;;;;;;;80.05;49.92;;;;;;;;;;5057932;28;20048;-85
2022/12/23 10:49:23;;;;;;;83.35;51.00;;;;;;;;;;5050870;28;21507;-80
2022/12/23 10:51:50;;;;;;;83.47;51.47;;;;;;;;;;5055936;28;20025;-81
2022/12/23 10:54:26;;;;;;;90.57;55.53;;;;;;;;;;5072581;28;20024;-84
2022/12/23 10:56:53;;;;;;;84.47;50.78;;;;;;;;;;5073717;28;20044;-83
2022/12/23 10:59:27;;;;;;;80.25;50.40;;;;;;;;;;5073468;28;20020;-81
2022/12/23 11:02:12;;;;;;;86.40;55.35;;;;;;;;;;5056202;28;20028;-81
2022/12/23 11:04:43;;;;;;;75.18;47.88;;;;;;;;;;5073295;28;20664;-83
2022/12/23 11:07:28;;;;;;;77.15;50.85;;;;;;;;;;5052195;28;20041;-81
2022/12/23 11:09:54;;;;;;;;;;;;;;;;;;5075558;28;20028;-81
2022/12/23 11:12:39;;;;;;;90.75;53.05;;;;;;;;;;5053249;28;19919;-83
2022/12/23 11:15:05;;;;;;;;;;;;;;;;;;5070811;28;20045;-81
2022/12/23 11:17:34;;;;;;;106.07;56.40;;;;;;;;;;5071325;28;20344;-77
2022/12/23 11:20:19;;;;;;;91.35;52.05;;;;;;;;;;5066023;28;20025;-84
2022/12/23 11:22:49;;;;;;;68.28;40.38;;;;;;;;;;5065309;28;20036;-82
2022/12/23 11:25:27;;;;;;;84.40;48.72;;;;;;;;;;5067825;28;20021;-80
2022/12/23 11:28:02;;;;;;;72.93;46.53;;;;;;;;;;5065641;28;20488;-81
2022/12/23 11:30:30;;;;;;;70.97;46.92;;;;;;;;;;5066137;28;20054;-79
2022/12/23 11:33:00;;;;;;;73.07;48.30;;;;;;;;;;5070447;28;20044;-81
2022/12/23 11:35:30;;;;;;;73.50;47.05;;;;;;;;;;5068860;28;20475;-83
2022/12/23 11:38:01;;;;;;;71.97;48.05;;;;;;;;;;5072531;28;20025;-80
2022/12/23 11:40:29;;;;;;;201.15;140.63;;;;;;;;;;5072995;28;20032;-84
2022/12/23 11:42:57;;;;;;;98.55;64.50;;;;;;;;;;5073631;28;20017;-82
2022/12/23 11:45:25;;;;;;;74.97;50.63;;;;;;;;;;5071763;28;20372;-83
2022/12/23 11:48:00;;;;;;;75.90;51.83;;;;;;;;;;5065836;28;20109;-83
2022/12/23 11:50:31;;;;;;;77.30;51.95;;;;;;;;;;5051200;28;20040;-80
2022/12/23 11:53:04;;;;;;;77.28;49.50;;;;;;;;;;5069712;28;20020;-81
2022/12/23 11:55:31;;;;;;;80.88;52.88;;;;;;;;;;5072936;28;20032;-81
2022/12/23 11:57:58;;;;;;;76.05;50.15;;;;;;;;;;5070773;28;20020;-81
2022/12/23 12:00:26;;;;;;;69.43;47.08;;;;;;;;;;5071361;28;20056;-83
2022/12/23 12:02:58;;;;;;;71.40;46.45;;;;;;;;;;5061771;28;20028;-84
2022/12/23 12:05:42;;;;;;;77.13;49.20;;;;;;;;;;5068563;28;20523;-82
2022/12/23 12:08:10;;;;;;;84.15;53.92;;;;;;;;;;5072430;28;20037;-79
2022/12/23 12:10:37;;;;;;;77.07;51.30;;;;;;;;;;5066425;28;20471;-83
2022/12/23 12:13:06;;;;;;;99.22;55.38;;;;;;;;;;5067772;28;20106;-80
2022/12/23 12:15:40;;;;;;;90.38;53.03;;;;;;;;;;5060724;28;20128;-82
2022/12/23 12:18:09;;;;;;;89.90;55.38;;;;;;;;;;5070000;28;20023;-81
2022/12/23 12:20:44;;;;;;;137.63;68.35;;;;;;;;;;5067788;28;20040;-82
2022/12/23 12:23:30;;;;;;;175.00;80.45;;;;;;;;;;5066533;28;20392;-81
2022/12/23 12:26:02;;;;;;;97.57;57.60;;;;;;;;;;5051968;28;20055;-82
2022/12/23 12:28:47;;;;;;;88.82;53.75;;;;;;;;;;5066985;28;20036;-78
2022/12/23 12:31:13;;;;;;;97.05;54.53;;;;;;;;;;5050295;28;20028;-80
2022/12/23 12:33:43;;;;;;;93.93;56.50;;;;;;;;;;5068222;28;20036;-83
2022/12/23 12:36:14;;;;;;;96.20;54.80;;;;;;;;;;5074213;28;20082;-81
2022/12/23 12:38:42;;;;;;;98.00;61.10;;;;;;;;;;5051994;28;20032;-83
2022/12/23 12:41:16;;;;;;;133.02;67.43;;;;;;;;;;5076767;28;20024;-82
2022/12/23 12:43:46;;;;;;;193.00;82.65;;;;;;;;;;5078757;28;20111;-84
2022/12/23 12:46:31;;;;;;;149.35;71.72;;;;;;;;;;5072356;28;20074;-83
2022/12/23 12:48:57;;;;;;;;;;;;;;;;;;5069931;28;20607;-80
2022/12/23 12:51:33;;;;;;;194.40;84.82;;;;;;;;;;5085862;28;19973;-84
2022/12/23 12:53:59;;;;;;;116.15;62.10;;;;;;;;;;5068966;28;20020;-81
2022/12/23 12:56:31;;;;;;;113.00;60.20;;;;;;;;;;5066827;28;20051;-84
2022/12/23 12:58:57;;;;;;;139.32;66.55;;;;;;;;;;5071792;28;20021;-84
2022/12/23 13:01:29;;;;;;;139.15;69.57;;;;;;;;;;5067829;28;20507;-85
2022/12/23 13:04:14;;;;;;;144.15;71.63;;;;;;;;;;5077333;28;20024;-84
2022/12/23 13:06:43;;;;;;;124.05;64.38;;;;;;;;;;5071065;28;20597;-82
2022/12/23 13:09:26;;;;;;;110.20;60.33;;;;;;;;;;5071214;28;20070;-83
2022/12/23 13:12:08;;;;;;;91.72;54.42;;;;;;;;;;5072271;28;20055;-81
2022/12/23 13:14:56;;;;;;;110.45;60.20;;;;;;;;;;5075134;28;20911;-84
2022/12/23 13:17:27;;;;;;;150.55;73.70;;;;;;;;;;5068903;28;20032;-81
2022/12/23 13:20:11;;;;;;;204.85;90.20;;;;;;;;;;5060231;28;20040;-81
2022/12/23 13:22:37;;;;;;;;;;;;;;;;;;5078017;28;20089;-80
2022/12/23 13:25:19;;;;;;;83.70;52.42;;;;;;;;;;5075209;28;19920;-84
2022/12/23 13:28:03;;;;;;;82.13;52.25;;;;;;;;;;5078576;28;20050;-84
2022/12/23 13:30:38;;;;;;;77.53;48.55;;;;;;;;;;5069242;28;20511;-82
2022/12/23 13:33:07;;;;;;;;;;;;;;;;;;5069014;28;20118;-81
2022/12/23 13:35:48;;;;;;;111.18;60.00;;;;;;;;;;5067731;28;19924;-82
2022/12/23 13:38:33;;;;;;;117.97;58.22;;;;;;;;;;5066766;28;20054;-80
2022/12/23 13:40:59;;;;;;;;;;;;;;;;;;5065906;28;20032;-80
2022/12/23 13:43:29;;;;;;;119.85;62.22;;;;;;;;;;5063815;28;20319;-81
2022/12/23 13:45:56;;;;;;;124.50;65.90;;;;;;;;;;5073174;28;20493;-83
2022/12/23 13:48:25;;;;;;;84.38;51.70;;;;;;;;;;5077388;28;20457;-81
2022/12/23 13:50:59;;;;;;;118.95;61.97;;;;;;;;;;5078217;28;20035;-82
2022/12/23 13:53:44;;;;;;;131.80;68.97;;;;;;;;;;5075321;28;20034;-83
2022/12/23 13:56:17;;;;;;;106.38;65.90;;;;;;;;;;5069720;28;20332;-82
2022/12/23 13:58:46;;;;;;;86.75;52.53;;;;;;;;;;5071644;28;20108;-82
2022/12/23 14:01:12;;;;;;;120.25;66.47;;;;;;;;;;5073953;28;20036;-83
2022/12/23 14:03:39;;;;;;;93.80;58.67;;;;;;;;;;5076983;28;20502;-81
2022/12/23 14:06:24;;;;;;;123.88;67.50;;;;;;;;;;5084173;28;20043;-82
2022/12/23 14:08:50;;;;;;;;;;;;;;;;;;5074278;28;20033;-83
2022/12/23 14:11:34;;;;;;;87.78;55.60;;;;;;;;;;5072236;28;19909;-86
2022/12/23 14:14:02;;;;;;;88.72;53.38;;;;;;;;;;5077046;28;20100;-83
2022/12/23 14:16:36;;;;;;;80.72;53.65;;;;;;;;;;5074945;28;20032;-83
2022/12/23 14:19:19;;;;;;;79.80;50.03;;;;;;;;;;5074926;28;20385;-84
2022/12/23 14:22:08;;;;;;;79.95;49.95;;;;;;;;;;5037520;28;20056;-81
2022/12/23 14:24:53;;;;;;;76.47;49.90;;;;;;;;;;5055227;28;20025;-82
2022/12/23 14:27:19;;;;;;;;;;;;;;;;;;5073495;28;20017;-81
2022/12/23 14:29:49;;;;;;;78.55;51.38;;;;;;;;;;5075063;28;20351;-81
2022/12/23 14:32:24;;;;;;;88.00;54.85;;;;;;;;;;5063708;28;20443;-81
2022/12/23 14:35:08;;;;;;;84.10;52.63;;;;;;;;;;5075153;28;20032;-81
2022/12/23 14:37:35;;;;;;;86.03;53.88;;;;;;;;;;5085070;28;20024;-82
2022/12/23 14:40:20;;;;;;;82.30;54.90;;;;;;;;;;5074924;28;20023;-82
2022/12/23 14:42:46;;;;;;;93.97;55.58;;;;;;;;;;5066524;28;20024;-79
2022/12/23 14:45:29;;;;;;;90.88;55.42;;;;;;;;;;5073604;28;20365;-82
2022/12/23 14:47:55;;;;;;;83.95;53.03;;;;;;;;;;5073876;28;20052;-81
2022/12/23 14:50:35;;;;;;;91.30;56.20;;;;;;;;;;5074232;28;20020;-81
2022/12/23 14:53:03;;;;;;;81.03;51.22;;;;;;;;;;5074355;28;20029;-84
2022/12/23 14:55:29;;;;;;;87.72;53.88;;;;;;;;;;5074276;28;20475;-81
2022/12/23 14:57:58;;;;;;;87.72;56.08;;;;;;;;;;5074601;28;20390;-82